Time;durP1;ratioP1;P1;durP2;ratioP2;P2;SDS_P1;SDS_P2;PMS_P1;PMS_P2;Temp;Humidity;BMP_temperature;BMP_pressure;BME280_temperature;BME280_humidity;BME280_pressure;Samples;Min_cycle;Max_cycle;Signal;HPM_P1;HPM_P2
2023/01/21 00:02:08;;;;;;;11.80;9.63;;;;;;;5.53;59.02;94357.69;5070476;28;20025;-78
2023/01/21 00:04:36;;;;;;;12.98;9.55;;;;;;;5.50;59.13;94358.53;5069603;28;20375;-80
2023/01/21 00:07:05;;;;;;;11.73;8.77;;;;;;;5.52;59.16;94361.63;5068323;28;20100;-79
2023/01/21 00:09:30;;;;;;;11.50;8.60;;;;;;;5.50;59.40;94383.06;5067647;28;20121;-78
2023/01/21 00:11:57;;;;;;;11.10;9.07;;;;;;;5.37;59.74;94382.13;5067663;28;20107;-78
2023/01/21 00:14:22;;;;;;;12.65;9.38;;;;;;;5.23;60.37;94374.22;5050453;28;20036;-77
2023/01/21 00:16:48;;;;;;;10.82;8.60;;;;;;;5.19;60.49;94363.38;5067879;28;20048;-79
2023/01/21 00:19:13;;;;;;;13.60;9.45;;;;;;;5.24;59.93;94375.75;5050747;28;20028;-80
2023/01/21 00:21:38;;;;;;;15.95;11.05;;;;;;;5.26;60.09;94381.56;5068689;28;20039;-79
2023/01/21 00:24:04;;;;;;;13.13;9.40;;;;;;;5.25;59.86;94372.59;5066976;28;20385;-78
2023/01/21 00:26:30;;;;;;;15.00;11.38;;;;;;;5.19;60.29;94362.59;5050130;28;20107;-79
2023/01/21 00:28:55;;;;;;;15.75;11.82;;;;;;;5.25;60.24;94369.13;5068692;28;20060;-79
2023/01/21 00:31:21;;;;;;;14.52;10.88;;;;;;;5.29;60.24;94383.47;5066807;28;20024;-79
2023/01/21 00:33:47;;;;;;;14.85;11.27;;;;;;;5.25;60.19;94385.47;5068548;28;20025;-79
2023/01/21 00:36:17;;;;;;;15.15;10.70;;;;;;;5.23;60.18;94379.66;5067916;28;20408;-78
2023/01/21 00:38:43;;;;;;;17.42;10.82;;;;;;;5.15;60.46;94381.72;5066838;28;20086;-78
2023/01/21 00:41:11;;;;;;;12.18;9.70;;;;;;;5.08;60.22;94368.22;5049939;28;20126;-79
2023/01/21 00:43:36;;;;;;;16.20;10.10;;;;;;;5.04;60.45;94370.25;5066517;28;20044;-79
2023/01/21 00:46:02;;;;;;;12.77;9.23;;;;;;;4.91;60.81;94361.88;5067966;28;20438;-78
2023/01/21 00:48:28;;;;;;;12.35;8.95;;;;;;;4.96;60.72;94371.56;5065901;28;20032;-79
2023/01/21 00:50:54;;;;;;;14.02;9.85;;;;;;;4.90;60.84;94376.69;5066104;28;20494;-79
2023/01/21 00:53:23;;;;;;;12.07;9.35;;;;;;;4.84;60.75;94374.88;5066007;28;20035;-79
2023/01/21 00:55:49;;;;;;;11.55;9.25;;;;;;;4.91;60.62;94359.16;5067039;28;20032;-79
2023/01/21 00:58:14;;;;;;;11.30;9.13;;;;;;;4.99;60.81;94365.28;5067211;28;20029;-79
2023/01/21 01:00:39;;;;;;;12.65;9.38;;;;;;;4.85;61.33;94363.53;5066970;28;20453;-79
2023/01/21 01:03:05;;;;;;;13.35;8.73;;;;;;;4.72;61.59;94355.19;5066054;28;20020;-79
2023/01/21 01:05:30;;;;;;;11.63;8.88;;;;;;;4.88;61.16;94370.13;5067719;28;20427;-79
2023/01/21 01:07:56;;;;;;;13.13;9.32;;;;;;;4.83;61.07;94371.38;5047955;28;20134;-80
2023/01/21 01:10:21;;;;;;;15.48;9.82;;;;;;;4.84;61.38;94366.69;5066862;28;20024;-81
2023/01/21 01:12:46;;;;;;;11.52;8.75;;;;;;;4.93;61.34;94383.25;5065022;28;20521;-79
2023/01/21 01:15:12;;;;;;;15.52;11.15;;;;;;;4.88;61.67;94364.69;5065688;28;20040;-79
2023/01/21 01:17:37;;;;;;;14.10;10.65;;;;;;;4.67;62.39;94358.38;5065704;28;20586;-79
2023/01/21 01:20:03;;;;;;;14.90;10.85;;;;;;;4.83;61.95;94360.47;5067608;28;20025;-79
2023/01/21 01:22:29;;;;;;;15.85;11.45;;;;;;;4.94;61.67;94377.41;5067091;28;20024;-78
2023/01/21 01:24:54;;;;;;;15.38;10.48;;;;;;;4.97;61.45;94381.25;5066189;28;20104;-80
2023/01/21 01:27:19;;;;;;;14.55;10.20;;;;;;;4.93;61.47;94377.81;5066874;28;20024;-79
2023/01/21 01:29:45;;;;;;;14.27;10.35;;;;;;;4.96;61.70;94369.59;5067224;28;20025;-80
2023/01/21 01:32:10;;;;;;;15.98;11.55;;;;;;;4.95;61.54;94351.72;5066631;28;20043;-79
2023/01/21 01:34:36;;;;;;;15.80;10.77;;;;;;;4.84;61.71;94345.66;5065393;28;20748;-79
2023/01/21 01:37:02;;;;;;;16.95;11.05;;;;;;;4.98;61.78;94353.59;5066819;28;20028;-79
2023/01/21 01:39:28;;;;;;;13.63;10.23;;;;;;;4.94;61.60;94333.84;5066600;28;20032;-79
2023/01/21 01:41:53;;;;;;;12.93;10.20;;;;;;;5.05;61.11;94336.38;5065636;28;20094;-78
2023/01/21 01:44:52;;;;;;;13.25;9.18;;;;;;;5.15;60.81;94343.59;5065028;28;20036;-79
2023/01/21 01:47:19;;;;;;;15.05;10.27;;;;;;;5.10;60.96;94341.31;5066205;28;20025;-79
2023/01/21 01:49:45;;;;;;;13.23;9.30;;;;;;;5.15;60.61;94332.69;5065144;28;20040;-79
2023/01/21 01:52:11;;;;;;;12.63;9.43;;;;;;;5.13;60.74;94329.63;5066954;28;20013;-78
2023/01/21 01:54:41;;;;;;;11.15;8.43;;;;;;;5.06;61.14;94316.13;5067414;28;20052;-79
2023/01/21 01:57:09;;;;;;;14.40;9.23;;;;;;;5.17;60.85;94315.94;5065298;28;20029;-79
2023/01/21 01:59:35;;;;;;;10.82;8.40;;;;;;;5.19;60.40;94322.50;5065223;28;20020;-79
2023/01/21 02:02:09;;;;;;;11.20;8.80;;;;;;;4.87;61.16;94303.97;5065479;28;20050;-79
2023/01/21 02:04:45;;;;;;;12.20;8.68;;;;;;;5.02;60.74;94304.50;5048007;28;20040;-79
2023/01/21 02:07:10;;;;;;;10.57;8.18;;;;;;;5.04;60.52;94304.84;5048069;28;20038;-79
2023/01/21 02:09:36;;;;;;;13.13;8.25;;;;;;;5.06;60.59;94300.53;5066086;28;20028;-78
2023/01/21 02:12:02;;;;;;;11.40;8.40;;;;;;;5.12;60.33;94309.00;5065266;28;20469;-80
2023/01/21 02:14:28;;;;;;;11.57;8.30;;;;;;;5.07;60.41;94304.81;5046126;28;20518;-78
2023/01/21 02:17:19;;;;;;;11.93;9.30;;;;;;;5.10;60.51;94299.69;5062713;28;20041;-81
2023/01/21 02:20:03;;;;;;;15.30;8.45;;;;;;;5.09;60.97;94293.47;5061390;28;20036;-80
2023/01/21 02:22:55;;;;;;;12.70;8.60;;;;;;;4.76;61.56;94282.41;5059966;28;20052;-80
2023/01/21 02:25:32;;;;;;;13.05;8.35;;;;;;;4.98;61.12;94290.19;5068760;28;20127;-78
2023/01/21 02:28:30;;;;;;;11.85;7.80;;;;;;;4.84;61.09;94285.75;5065155;28;20036;-79
2023/01/21 02:30:58;;;;;;;9.63;7.82;;;;;;;4.88;61.30;94289.19;5065324;28;20048;-78
2023/01/21 02:33:35;;;;;;;11.07;8.77;;;;;;;4.90;61.22;94264.25;5066374;28;20439;-80
2023/01/21 02:36:22;;;;;;;11.63;8.25;;;;;;;4.82;61.32;94262.84;5064412;28;20033;-79
2023/01/21 02:38:57;;;;;;;11.52;8.10;;;;;;;4.77;61.41;94269.53;5048539;28;20033;-79
2023/01/21 02:41:31;;;;;;;11.75;8.10;;;;;;;4.79;61.38;94248.09;5051716;28;20032;-79
2023/01/21 02:44:07;;;;;;;9.68;7.88;;;;;;;4.69;61.26;94258.00;5065708;28;20119;-79
2023/01/21 02:46:41;;;;;;;9.48;7.68;;;;;;;4.65;61.77;94251.09;5045098;28;20033;-79
2023/01/21 02:49:08;;;;;;;;;;;;;;;4.70;61.73;94272.38;5046011;28;20438;-80
2023/01/21 02:51:34;;;;;;;9.55;7.45;;;;;;;4.60;61.84;94278.78;5045688;28;19913;-78
2023/01/21 02:54:10;;;;;;;10.50;7.85;;;;;;;4.58;62.09;94262.84;5045889;28;20029;-80
2023/01/21 02:56:35;;;;;;;11.85;8.10;;;;;;;4.54;62.11;94270.31;5044463;28;20073;-80
2023/01/21 02:59:02;;;;;;;11.98;8.65;;;;;;;4.51;62.51;94246.63;5057854;28;20025;-78
2023/01/21 03:01:34;;;;;;;13.02;8.88;;;;;;;4.45;62.81;94264.63;5063030;28;20402;-78
2023/01/21 03:04:04;;;;;;;11.80;9.50;;;;;;;4.30;63.14;94241.53;5079081;28;20047;-78
2023/01/21 03:06:37;;;;;;;12.57;8.60;;;;;;;4.40;62.96;94235.91;5064195;28;20466;-80
2023/01/21 03:09:09;;;;;;;10.43;7.85;;;;;;;4.48;63.04;94250.97;5063125;28;20044;-79
2023/01/21 03:11:35;;;;;;;11.45;8.70;;;;;;;4.38;63.29;94235.56;5063724;28;20028;-79
2023/01/21 03:17:12;;;;;;;12.10;9.25;;;;;;;4.50;63.20;94221.38;5062944;28;20063;-79
2023/01/21 03:20:03;;;;;;;12.95;9.15;;;;;;;4.52;63.21;94224.44;5044750;28;20120;-79
2023/01/21 03:22:31;;;;;;;10.48;8.27;;;;;;;4.52;63.14;94238.03;5057928;28;20033;-79
2023/01/21 03:24:58;;;;;;;12.15;8.55;;;;;;;4.51;63.02;94219.41;5064027;28;20395;-79
2023/01/21 03:27:25;;;;;;;10.95;8.13;;;;;;;4.36;63.43;94220.81;5062236;28;20443;-79
2023/01/21 03:29:54;;;;;;;11.52;8.75;;;;;;;4.43;63.47;94224.22;5062764;28;20028;-79
2023/01/21 03:32:21;;;;;;;10.75;8.20;;;;;;;4.49;62.99;94219.06;5063394;28;20502;-80
2023/01/21 03:34:48;;;;;;;10.77;8.13;;;;;;;4.53;62.94;94226.00;5062053;28;20085;-79
2023/01/21 03:37:19;;;;;;;11.82;8.75;;;;;;;4.52;62.58;94220.94;5062092;28;20556;-79
2023/01/21 03:40:08;;;;;;;9.90;8.10;;;;;;;4.62;62.41;94200.19;5063013;28;20024;-79
2023/01/21 03:42:34;;;;;;;8.90;7.55;;;;;;;4.56;62.49;94188.22;5064158;28;20525;-78
2023/01/21 03:44:59;;;;;;;10.30;6.82;;;;;;;4.48;62.29;94191.09;5046779;28;20064;-79
2023/01/21 03:47:30;;;;;;;8.77;7.10;;;;;;;4.51;62.00;94206.56;5063219;28;20039;-79
2023/01/21 03:50:08;;;;;;;9.55;7.85;;;;;;;4.57;62.25;94206.88;5046784;28;20096;-79
2023/01/21 03:52:37;;;;;;;10.02;7.20;;;;;;;4.57;61.99;94190.53;5062610;28;20038;-79
2023/01/21 03:55:04;;;;;;;10.35;8.00;;;;;;;4.54;61.84;94199.53;5046017;28;20056;-79
2023/01/21 03:57:29;;;;;;;10.07;7.70;;;;;;;4.57;61.76;94195.22;5061847;28;20445;-79
2023/01/21 03:59:55;;;;;;;11.43;8.25;;;;;;;4.54;61.70;94191.38;5064153;28;20024;-78
2023/01/21 04:02:20;;;;;;;10.07;8.23;;;;;;;4.49;61.79;94198.06;5060548;28;20105;-79
2023/01/21 04:04:46;;;;;;;9.95;7.82;;;;;;;4.37;62.02;94201.38;5063105;28;20406;-80
2023/01/21 04:07:15;;;;;;;9.18;7.50;;;;;;;4.38;62.33;94211.09;5062155;28;20051;-80
2023/01/21 04:09:41;;;;;;;10.68;7.70;;;;;;;4.24;62.68;94193.06;5062427;28;20535;-79
2023/01/21 04:12:06;;;;;;;13.10;7.85;;;;;;;4.35;62.16;94190.13;5042940;28;20099;-81
2023/01/21 04:14:32;;;;;;;10.73;7.47;;;;;;;4.37;62.30;94197.91;5044629;28;20615;-79
2023/01/21 04:16:57;;;;;;;9.73;7.40;;;;;;;4.41;62.16;94201.31;5058762;28;20044;-80
2023/01/21 04:19:22;;;;;;;11.90;8.10;;;;;;;4.24;62.31;94173.22;5062828;28;20635;-79
2023/01/21 04:21:48;;;;;;;9.75;7.88;;;;;;;4.29;62.41;94158.38;5046431;28;20035;-79
2023/01/21 04:24:13;;;;;;;11.95;8.57;;;;;;;4.37;62.23;94170.69;5062490;28;20028;-78
2023/01/21 04:26:39;;;;;;;12.00;8.57;;;;;;;4.40;62.40;94191.59;5046506;28;20640;-80
2023/01/21 04:29:04;;;;;;;10.02;7.78;;;;;;;4.42;62.20;94191.97;5064047;28;20017;-79
2023/01/21 04:31:29;;;;;;;12.07;8.20;;;;;;;4.32;62.33;94190.97;5064563;28;20029;-78
2023/01/21 04:33:55;;;;;;;11.85;8.48;;;;;;;4.32;62.21;94190.19;5062925;28;20063;-78
2023/01/21 04:36:20;;;;;;;12.15;8.73;;;;;;;4.33;62.40;94180.84;5046687;28;20021;-78
2023/01/21 04:38:46;;;;;;;12.40;9.20;;;;;;;4.29;62.56;94196.47;5068663;28;20449;-78
2023/01/21 04:41:11;;;;;;;15.23;9.77;;;;;;;4.29;62.54;94216.28;5066763;28;20021;-80
2023/01/21 04:43:36;;;;;;;12.80;10.00;;;;;;;4.26;62.56;94217.13;5068174;28;20050;-79
2023/01/21 04:46:02;;;;;;;12.88;9.80;;;;;;;4.25;62.86;94229.94;5067976;28;20048;-78
2023/01/21 04:48:27;;;;;;;13.43;10.07;;;;;;;4.27;62.59;94226.81;5067529;28;20398;-79
2023/01/21 04:50:52;;;;;;;15.27;10.07;;;;;;;4.21;62.67;94231.19;5071219;28;20039;-80
2023/01/21 04:53:18;;;;;;;15.48;10.93;;;;;;;4.20;62.87;94224.22;5067600;28;20144;-81
2023/01/21 04:55:43;;;;;;;14.40;9.63;;;;;;;4.26;62.75;94220.59;5069088;28;20028;-79
2023/01/21 04:58:09;;;;;;;16.88;10.85;;;;;;;4.28;62.77;94233.03;5068199;28;20488;-80
2023/01/21 05:00:34;;;;;;;14.70;10.40;;;;;;;4.23;62.84;94220.66;5066972;28;20036;-80
2023/01/21 05:03:00;;;;;;;14.48;10.73;;;;;;;4.26;62.84;94236.16;5066571;28;20037;-79
2023/01/21 05:05:25;;;;;;;14.68;10.38;;;;;;;4.24;63.08;94243.94;5066268;28;20032;-80
2023/01/21 05:07:54;;;;;;;13.80;10.05;;;;;;;4.26;63.05;94247.03;5067747;28;20050;-80
2023/01/21 05:10:19;;;;;;;14.95;9.98;;;;;;;4.12;63.29;94253.47;5049759;28;20047;-80
2023/01/21 05:12:45;;;;;;;14.45;10.70;;;;;;;4.15;63.49;94249.16;5065524;28;20032;-80
2023/01/21 05:15:10;;;;;;;12.15;9.27;;;;;;;4.14;63.60;94244.91;5064649;28;20490;-80
2023/01/21 05:17:36;;;;;;;12.77;8.95;;;;;;;4.19;63.42;94239.00;5064669;28;20124;-80
2023/01/21 05:20:02;;;;;;;13.27;9.52;;;;;;;4.17;63.54;94260.38;5066744;28;20430;-80
2023/01/21 05:22:28;;;;;;;15.13;9.90;;;;;;;4.23;63.35;94253.28;5064397;28;20522;-80
2023/01/21 05:24:53;;;;;;;14.23;9.40;;;;;;;4.26;63.17;94260.66;5067009;28;20099;-80
2023/01/21 05:27:20;;;;;;;14.55;9.38;;;;;;;4.27;62.74;94251.31;5048915;28;20040;-80
2023/01/21 05:29:46;;;;;;;12.02;8.70;;;;;;;4.18;62.88;94253.75;5066589;28;20447;-79
2023/01/21 05:32:12;;;;;;;11.50;8.48;;;;;;;4.12;63.20;94260.84;5065979;28;20174;-80
2023/01/21 05:34:37;;;;;;;12.55;9.00;;;;;;;4.08;63.23;94274.53;5066909;28;20728;-80
2023/01/21 05:37:03;;;;;;;13.18;9.15;;;;;;;4.06;63.01;94265.22;5066390;28;20028;-80
2023/01/21 05:39:28;;;;;;;11.88;8.73;;;;;;;4.07;62.94;94250.44;5066103;28;20029;-79
2023/01/21 05:41:54;;;;;;;11.70;8.32;;;;;;;4.13;62.89;94257.75;5067085;28;20120;-79
2023/01/21 05:44:19;;;;;;;13.20;8.70;;;;;;;4.09;63.08;94259.72;5065559;28;20434;-80
2023/01/21 05:46:44;;;;;;;12.98;9.18;;;;;;;4.06;63.09;94248.91;5065532;28;20047;-79
2023/01/21 05:49:10;;;;;;;12.40;9.05;;;;;;;4.09;62.84;94264.41;5065120;28;20024;-79
2023/01/21 05:51:35;;;;;;;12.35;9.15;;;;;;;4.09;63.00;94272.56;5066500;28;20036;-82
2023/01/21 05:54:02;;;;;;;14.18;9.15;;;;;;;4.09;63.05;94267.91;5066809;28;20106;-81
2023/01/21 05:56:27;;;;;;;12.23;9.73;;;;;;;4.07;63.18;94262.09;5064299;28;20040;-81
2023/01/21 05:58:52;;;;;;;14.90;9.98;;;;;;;4.09;63.35;94253.53;5063235;28;20449;-82
2023/01/21 06:01:18;;;;;;;11.55;9.07;;;;;;;4.05;63.40;94247.38;5066310;28;20102;-82
2023/01/21 06:03:43;;;;;;;11.77;8.65;;;;;;;4.05;63.51;94261.72;5066549;28;20501;-82
2023/01/21 06:06:09;;;;;;;13.77;10.23;;;;;;;4.07;63.43;94258.59;5065139;28;20107;-80
2023/01/21 06:08:34;;;;;;;12.57;9.55;;;;;;;4.05;63.13;94266.41;5065038;28;20033;-80
2023/01/21 06:11:00;;;;;;;13.48;10.45;;;;;;;4.03;63.10;94258.66;5064104;28;20063;-80
2023/01/21 06:13:25;;;;;;;13.65;9.95;;;;;;;4.02;63.25;94259.06;5064696;28;20022;-81
2023/01/21 06:15:55;;;;;;;13.25;10.07;;;;;;;4.06;63.28;94260.53;5064359;28;20067;-82
2023/01/21 06:18:21;;;;;;;12.60;9.98;;;;;;;4.06;63.07;94265.22;5064497;28;20110;-82
2023/01/21 06:20:46;;;;;;;14.48;10.13;;;;;;;4.04;63.11;94262.91;5065022;28;20479;-80
2023/01/21 06:23:12;;;;;;;14.88;10.48;;;;;;;3.97;63.43;94252.16;5062414;28;20040;-79
2023/01/21 06:25:37;;;;;;;15.68;10.13;;;;;;;4.07;63.27;94270.25;5063362;28;20033;-79
2023/01/21 06:28:03;;;;;;;13.65;10.43;;;;;;;4.06;63.38;94268.69;5064798;28;20097;-78
2023/01/21 06:30:28;;;;;;;14.68;10.27;;;;;;;4.10;63.47;94271.38;5065631;28;20032;-79
2023/01/21 06:32:54;;;;;;;15.07;10.23;;;;;;;4.10;63.24;94277.59;5065218;28;20028;-79
2023/01/21 06:35:19;;;;;;;15.20;10.63;;;;;;;4.13;63.12;94282.22;5063680;28;20121;-78
2023/01/21 06:37:45;;;;;;;14.30;10.68;;;;;;;4.12;63.11;94288.81;5063959;28;20036;-79
2023/01/21 06:40:11;;;;;;;14.43;10.75;;;;;;;4.13;63.42;94300.47;5064620;28;20419;-79
2023/01/21 06:42:37;;;;;;;16.83;11.95;;;;;;;4.15;63.21;94288.00;5060645;28;20222;-79
2023/01/21 06:45:06;;;;;;;15.65;11.40;;;;;;;4.18;63.16;94281.72;5063396;28;20033;-80
2023/01/21 06:47:31;;;;;;;19.23;12.02;;;;;;;4.22;63.04;94296.06;5061254;28;20033;-83
2023/01/21 06:49:56;;;;;;;18.30;12.30;;;;;;;4.20;63.17;94293.00;5064686;28;20028;-84
2023/01/21 06:52:22;;;;;;;17.60;12.45;;;;;;;4.18;63.40;94289.13;5063583;28;20043;-84
2023/01/21 06:54:48;;;;;;;18.35;12.75;;;;;;;4.27;63.34;94300.28;5064305;28;20111;-83
2023/01/21 06:57:13;;;;;;;19.25;12.27;;;;;;;4.35;63.22;94298.97;5064318;28;20028;-85
2023/01/21 06:59:39;;;;;;;17.95;12.43;;;;;;;4.41;63.10;94316.38;5064734;28;20091;-84
2023/01/21 07:02:04;;;;;;;22.98;14.43;;;;;;;4.21;63.46;94315.53;5063740;28;20032;-80
2023/01/21 07:04:30;;;;;;;21.75;13.70;;;;;;;4.38;63.55;94328.09;5063660;28;20101;-79
2023/01/21 07:06:55;;;;;;;21.52;14.13;;;;;;;4.52;63.01;94324.38;5064571;28;20522;-80
2023/01/21 07:09:20;;;;;;;23.98;14.93;;;;;;;4.68;62.67;94321.81;5061233;28;20025;-79
2023/01/21 07:11:46;;;;;;;22.05;13.32;;;;;;;4.86;62.05;94312.56;5065115;28;20111;-80
2023/01/21 07:14:11;;;;;;;18.55;12.30;;;;;;;4.98;61.56;94323.63;5064668;28;20033;-80
2023/01/21 07:16:37;;;;;;;17.58;10.57;;;;;;;5.06;61.12;94316.13;5061915;28;20473;-79
2023/01/21 07:19:02;;;;;;;20.15;12.35;;;;;;;5.18;60.80;94307.34;5068445;28;20435;-79
2023/01/21 07:21:28;;;;;;;19.05;11.68;;;;;;;5.34;60.33;94312.13;5065087;28;20591;-80
2023/01/21 07:23:54;;;;;;;19.80;12.57;;;;;;;5.50;59.98;94314.91;5065756;28;20040;-80
2023/01/21 07:26:20;;;;;;;22.23;13.23;;;;;;;5.62;59.57;94321.72;5048281;28;20402;-80
2023/01/21 07:28:45;;;;;;;22.83;14.88;;;;;;;5.78;59.35;94329.94;5063182;28;20039;-80
2023/01/21 07:31:12;;;;;;;21.05;13.00;;;;;;;5.86;58.91;94330.59;5065455;28;20099;-80
2023/01/21 07:33:38;;;;;;;21.15;13.07;;;;;;;6.00;58.38;94305.75;5046932;28;20021;-80
2023/01/21 07:36:05;;;;;;;18.58;11.75;;;;;;;6.23;57.99;94309.56;5047208;28;20408;-81
2023/01/21 07:38:30;;;;;;;17.92;11.73;;;;;;;6.39;57.64;94291.25;5061513;28;20502;-80
2023/01/21 07:40:56;;;;;;;20.13;12.77;;;;;;;6.62;56.86;94301.25;5064031;28;20025;-80
2023/01/21 07:43:21;;;;;;;23.38;15.57;;;;;;;6.77;56.52;94301.69;5062552;28;20035;-84
2023/01/21 07:45:47;;;;;;;20.70;13.57;;;;;;;6.99;56.24;94299.16;5062893;28;20035;-84
2023/01/21 07:48:12;;;;;;;21.55;15.77;;;;;;;7.15;55.59;94299.13;5063233;28;20506;-84
2023/01/21 07:50:38;;;;;;;23.40;16.10;;;;;;;7.34;55.17;94308.44;5064010;28;20040;-83
2023/01/21 07:53:03;;;;;;;30.10;20.67;;;;;;;7.26;55.48;94295.38;5062869;28;20120;-83
2023/01/21 07:55:29;;;;;;;27.85;18.73;;;;;;;7.60;54.79;94312.03;5061904;28;20487;-83
2023/01/21 07:57:55;;;;;;;27.25;18.30;;;;;;;7.95;53.82;94302.03;5063700;28;20025;-84
2023/01/21 08:00:22;;;;;;;28.70;20.60;;;;;;;8.24;53.30;94288.28;5062444;28;20040;-83
2023/01/21 08:02:53;;;;;;;30.75;21.00;;;;;;;8.61;52.27;94285.28;5065198;28;20170;-82
2023/01/21 08:05:18;;;;;;;34.10;22.17;;;;;;;8.89;51.68;94280.81;5062533;28;20567;-83
2023/01/21 08:07:44;;;;;;;26.85;18.15;;;;;;;9.22;50.76;94284.03;5064030;28;20040;-83
2023/01/21 08:10:09;;;;;;;11.00;8.30;;;;;;;9.23;50.36;94291.84;5063717;28;20498;-83
2023/01/21 08:12:35;;;;;;;9.07;6.07;;;;;;;9.49;49.84;94300.72;5066923;28;20407;-83
2023/01/21 08:15:00;;;;;;;6.13;4.93;;;;;;;9.89;49.08;94324.06;5067958;28;20036;-82
2023/01/21 08:17:26;;;;;;;6.07;4.63;;;;;;;9.92;48.83;94326.69;5048995;28;20127;-84
2023/01/21 08:19:51;;;;;;;5.95;4.20;;;;;;;10.26;47.91;94320.34;5073200;28;20032;-85
2023/01/21 08:22:17;;;;;;;5.20;4.03;;;;;;;10.60;46.69;94302.19;5072473;28;20013;-84
2023/01/21 08:24:42;;;;;;;4.75;3.97;;;;;;;10.85;45.94;94320.47;5064896;28;20024;-83
2023/01/21 08:27:07;;;;;;;5.93;4.68;;;;;;;11.12;45.16;94331.53;5067075;28;20521;-84
2023/01/21 08:29:33;;;;;;;5.47;3.67;;;;;;;11.27;44.89;94317.97;5066939;28;20028;-84
2023/01/21 08:31:58;;;;;;;6.38;4.13;;;;;;;11.38;44.37;94312.03;5067342;28;20016;-82
2023/01/21 08:34:24;;;;;;;7.43;4.20;;;;;;;11.70;44.10;94308.69;5068127;28;20458;-85
2023/01/21 08:36:49;;;;;;;7.18;4.80;;;;;;;12.02;43.27;94320.31;5068990;28;20135;-84
2023/01/21 08:39:15;;;;;;;6.13;4.00;;;;;;;12.59;41.91;94322.50;5068135;28;20026;-84
2023/01/21 08:41:41;;;;;;;5.45;3.78;;;;;;;13.55;40.50;94329.69;5067040;28;20398;-84
2023/01/21 08:44:07;;;;;;;7.28;5.30;;;;;;;14.14;39.54;94331.06;5066885;28;20475;-83
2023/01/21 08:46:33;;;;;;;5.95;4.15;;;;;;;14.54;37.93;94325.03;5049794;28;20016;-84
2023/01/21 08:48:58;;;;;;;6.70;4.80;;;;;;;14.43;37.75;94316.50;5067633;28;20036;-84
2023/01/21 08:51:24;;;;;;;6.35;4.68;;;;;;;14.70;37.61;94321.78;5049614;28;20082;-84
2023/01/21 08:53:50;;;;;;;7.25;5.68;;;;;;;15.63;35.88;94324.91;5066572;28;20071;-84
2023/01/21 08:56:15;;;;;;;6.35;4.32;;;;;;;16.25;33.94;94334.69;5067599;28;20017;-84
2023/01/21 08:58:41;;;;;;;5.50;4.05;;;;;;;15.98;33.95;94319.28;5049919;28;20028;-83
2023/01/21 09:01:09;;;;;;;4.28;3.55;;;;;;;15.33;34.71;94330.53;5066193;28;20032;-84
2023/01/21 09:03:36;;;;;;;6.35;4.50;;;;;;;15.22;34.83;94327.59;5067049;28;20512;-85
2023/01/21 09:06:02;;;;;;;5.07;3.40;;;;;;;16.81;32.34;94334.50;5063971;28;20028;-79
2023/01/21 09:08:28;;;;;;;4.65;3.15;;;;;;;15.81;33.45;94321.84;5062566;28;20028;-83
2023/01/21 09:11:01;;;;;;;4.43;3.40;;;;;;;15.76;33.89;94319.00;5066739;28;20024;-83
2023/01/21 09:13:34;;;;;;;5.15;3.45;;;;;;;15.53;34.54;94326.25;5066071;28;20115;-79
2023/01/21 09:16:00;;;;;;;4.10;2.92;;;;;;;15.37;34.29;94322.03;5069052;28;20024;-78
2023/01/21 09:18:26;;;;;;;4.18;3.20;;;;;;;15.31;35.13;94319.19;5065473;28;20036;-81
2023/01/21 09:20:51;;;;;;;6.28;3.50;;;;;;;16.49;33.08;94314.25;5064513;28;20047;-81
2023/01/21 09:23:23;;;;;;;4.35;2.90;;;;;;;18.66;29.72;94322.25;5062903;28;20116;-83
2023/01/21 09:26:01;;;;;;;5.40;3.03;;;;;;;20.10;27.46;94314.19;5080967;28;20024;-82
2023/01/21 09:28:28;;;;;;;4.18;2.80;;;;;;;21.61;25.56;94317.16;5065631;28;20146;-80
2023/01/21 09:30:58;;;;;;;4.00;3.00;;;;;;;23.82;23.27;94313.00;5066947;28;20108;-84
2023/01/21 09:33:24;;;;;;;4.45;2.95;;;;;;;24.48;21.66;94317.03;5066711;28;20024;-81
2023/01/21 09:35:54;;;;;;;5.38;3.20;;;;;;;24.69;21.69;94303.81;5078934;28;20025;-81
2023/01/21 09:38:19;;;;;;;4.22;3.38;;;;;;;25.34;20.80;94299.19;5074971;28;20060;-85
2023/01/21 09:40:45;;;;;;;4.03;2.80;;;;;;;26.94;19.24;94284.47;5066440;28;20072;-82
2023/01/21 09:43:16;;;;;;;4.78;3.28;;;;;;;28.75;17.85;94286.91;5063180;28;20447;-84
2023/01/21 09:45:43;;;;;;;4.18;3.00;;;;;;;28.84;16.87;94300.44;5065194;28;20411;-86
2023/01/21 09:48:13;;;;;;;3.35;2.78;;;;;;;28.48;17.11;94292.31;5065066;28;20033;-86
2023/01/21 09:50:40;;;;;;;4.60;2.60;;;;;;;30.05;15.82;94297.31;5048366;28;20032;-85
2023/01/21 09:53:33;;;;;;;3.80;2.60;;;;;;;30.33;15.16;94296.06;5062882;28;20025;-85
2023/01/21 09:56:01;;;;;;;4.18;2.53;;;;;;;31.77;14.40;94303.22;5064838;28;20028;-87
2023/01/21 09:58:34;;;;;;;3.95;2.58;;;;;;;31.54;15.02;94294.31;5064446;28;20020;-81
2023/01/21 10:01:15;;;;;;;5.30;3.00;;;;;;;33.02;14.17;94279.81;5065845;28;20031;-81
2023/01/21 10:04:12;;;;;;;3.20;2.65;;;;;;;32.53;14.16;94274.78;5066286;28;20028;-84
2023/01/21 10:07:14;;;;;;;3.40;2.40;;;;;;;33.95;12.77;94279.19;5061862;28;20483;-84
2023/01/21 10:09:46;;;;;;;3.78;2.00;;;;;;;33.61;12.71;94265.38;5044954;28;20033;-80
2023/01/21 10:12:30;;;;;;;2.70;1.93;;;;;;;34.71;11.86;94261.38;5048253;28;20032;-82
2023/01/21 10:15:22;;;;;;;3.83;2.17;;;;;;;35.20;11.54;94276.66;5053390;28;20055;-82
2023/01/21 10:18:03;;;;;;;3.88;2.33;;;;;;;35.00;11.88;94276.13;5045810;28;20040;-83
2023/01/21 10:20:43;;;;;;;3.10;1.83;;;;;;;34.25;12.04;94274.03;5064627;28;20035;-84
2023/01/21 10:23:37;;;;;;;3.38;1.90;;;;;;;33.56;13.12;94272.94;5063230;28;20036;-79
2023/01/21 10:26:07;;;;;;;3.35;1.70;;;;;;;33.81;13.00;94276.09;5063826;28;20111;-81
2023/01/21 10:28:33;;;;;;;3.75;2.03;;;;;;;32.62;14.47;94268.34;5064302;28;20036;-80
2023/01/21 10:31:07;;;;;;;3.28;1.70;;;;;;;33.43;14.38;94270.56;5064414;28;20048;-79
2023/01/21 10:33:33;;;;;;;2.78;1.77;;;;;;;32.95;12.90;94269.34;5064024;28;20024;-80
2023/01/21 10:36:21;;;;;;;2.08;1.65;;;;;;;33.60;13.80;94266.75;5062892;28;20125;-80
2023/01/21 10:39:04;;;;;;;2.67;1.63;;;;;;;34.22;13.48;94258.16;5063872;28;20078;-79
2023/01/21 10:41:45;;;;;;;2.03;1.42;;;;;;;35.65;12.19;94254.50;5065123;28;20035;-84
2023/01/21 10:44:43;;;;;;;2.88;1.50;;;;;;;36.81;11.18;94257.72;5065248;28;20078;-80
2023/01/21 10:47:29;;;;;;;2.95;1.67;;;;;;;37.59;10.92;94248.44;5063835;28;20047;-82
2023/01/21 10:50:14;;;;;;;2.40;1.70;;;;;;;38.49;10.18;94251.00;5065746;28;20139;-79
2023/01/21 10:52:45;;;;;;;3.28;1.55;;;;;;;39.09;9.59;94242.38;5062104;28;20227;-79
2023/01/21 10:55:36;;;;;;;3.63;2.15;;;;;;;39.64;9.49;94253.63;5064532;28;20051;-80
2023/01/21 10:58:15;;;;;;;2.25;1.48;;;;;;;40.40;9.05;94258.41;5060555;28;20480;-79
2023/01/21 11:00:46;;;;;;;2.47;1.48;;;;;;;40.97;8.71;94251.44;5047491;28;20028;-80
2023/01/21 11:03:37;;;;;;;3.63;1.38;;;;;;;41.64;8.73;94234.63;5064586;28;20028;-80
2023/01/21 11:06:05;;;;;;;3.38;1.63;;;;;;;42.09;8.00;94238.41;5060610;28;20111;-81
2023/01/21 11:08:31;;;;;;;2.08;1.50;;;;;;;42.59;7.58;94227.94;5064536;28;20033;-78
2023/01/21 11:10:57;;;;;;;2.55;1.63;;;;;;;43.22;7.12;94220.56;5061746;28;20467;-78
2023/01/21 11:13:22;;;;;;;5.63;1.88;;;;;;;43.98;7.08;94212.72;5063105;28;20052;-80
2023/01/21 11:15:56;;;;;;;3.58;1.70;;;;;;;44.44;6.75;94232.81;5061649;28;20525;-79
2023/01/21 11:18:25;;;;;;;2.67;1.60;;;;;;;43.72;6.95;94238.75;5062141;28;20131;-80
2023/01/21 11:20:50;;;;;;;2.53;1.30;;;;;;;43.12;7.36;94235.44;5065383;28;20052;-80
2023/01/21 11:23:37;;;;;;;2.28;1.40;;;;;;;43.46;6.96;94235.78;5047033;28;20089;-80
2023/01/21 11:26:06;;;;;;;3.50;1.50;;;;;;;42.75;7.11;94241.44;5063504;28;20021;-79
2023/01/21 11:28:33;;;;;;;3.03;1.75;;;;;;;39.65;8.55;94229.94;5063536;28;20068;-80
2023/01/21 11:31:25;;;;;;;2.38;1.42;;;;;;;39.47;9.11;94220.47;5063781;28;20032;-80
2023/01/21 11:33:51;;;;;;;2.35;1.50;;;;;;;37.84;9.91;94218.94;5060196;28;20045;-80
2023/01/21 11:36:19;;;;;;;2.47;1.30;;;;;;;35.45;11.56;94206.81;5064052;28;20035;-80
2023/01/21 11:38:46;;;;;;;2.67;1.73;;;;;;;33.37;12.38;94213.91;5065088;28;20511;-82
2023/01/21 11:41:11;;;;;;;4.38;2.20;;;;;;;31.43;14.56;94208.34;5062761;28;20036;-82
2023/01/21 11:43:44;;;;;;;2.50;1.75;;;;;;;29.93;15.52;94202.03;5062577;28;20126;-83